createdAt,value
2023-10-12T00:00:50.569Z,36.44
2023-10-12T00:01:50.592Z,36.54
2023-10-12T00:02:50.611Z,36.63
2023-10-12T00:03:50.734Z,36.54
2023-10-12T00:04:50.616Z,36.54
2023-10-12T00:05:50.611Z,36.54
2023-10-12T00:06:50.664Z,36.54
2023-10-12T00:07:50.882Z,37.11
2023-10-12T00:08:50.654Z,36.82
2023-10-12T00:09:50.743Z,37.02
2023-10-12T00:10:50.686Z,36.92
2023-10-12T00:11:50.698Z,37.49
2023-10-12T00:12:50.722Z,37.11
2023-10-12T00:13:50.773Z,37.02
2023-10-12T00:14:50.748Z,36.61
2023-10-12T00:15:50.783Z,36.82
2023-10-12T00:16:50.794Z,36.54
2023-10-12T00:17:50.818Z,36.82
2023-10-12T00:18:50.874Z,36.44
2023-10-12T00:19:50.847Z,36.54
2023-10-12T00:20:50.846Z,36.35
2023-10-12T00:21:50.924Z,36.44
2023-10-12T00:22:50.881Z,36.35
2023-10-12T00:23:50.884Z,36.25
2023-10-12T00:24:50.934Z,37.21
2023-10-12T00:25:51.017Z,37.02
2023-10-12T00:26:50.952Z,37.21
2023-10-12T00:27:50.976Z,37.40
2023-10-12T00:28:50.971Z,37.78
2023-10-12T00:29:50.980Z,37.49
2023-10-12T00:30:51.232Z,37.28
2023-10-12T00:31:51.031Z,37.02
2023-10-12T00:32:51.054Z,37.30
2023-10-12T00:33:51.080Z,37.66
2023-10-12T00:34:51.080Z,38.05
2023-10-12T00:35:51.070Z,38.24
2023-10-12T00:36:51.120Z,38.24
2023-10-12T00:37:51.100Z,38.05
2023-10-12T00:38:51.116Z,38.24
2023-10-12T00:39:51.148Z,38.17
2023-10-12T00:40:51.153Z,37.59
2023-10-12T00:41:51.639Z,37.49
2023-10-12T00:42:51.205Z,37.21
2023-10-12T00:43:51.212Z,36.73
2023-10-12T00:44:51.210Z,37.40
2023-10-12T00:45:51.302Z,37.21
2023-10-12T00:46:51.301Z,37.97
2023-10-12T00:47:51.266Z,37.59
2023-10-12T00:48:51.463Z,37.97
2023-10-12T00:49:51.286Z,37.49
2023-10-12T00:50:51.328Z,37.11
2023-10-12T00:51:51.344Z,37.40
2023-10-12T00:52:51.338Z,37.21
2023-10-12T00:53:51.349Z,37.11
2023-10-12T00:54:51.383Z,38.17
2023-10-12T00:55:51.377Z,37.97
2023-10-12T00:56:51.392Z,37.97
2023-10-12T00:57:51.553Z,38.07
2023-10-12T00:58:51.422Z,37.40
2023-10-12T00:59:51.439Z,37.40
2023-10-12T01:00:51.506Z,37.59
2023-10-12T01:01:51.488Z,38.17
2023-10-12T01:02:51.573Z,38.74
2023-10-12T01:03:51.546Z,38.74
2023-10-12T01:04:51.556Z,39.03
2023-10-12T01:05:51.530Z,38.64
2023-10-12T01:06:51.614Z,38.74
2023-10-12T01:07:51.562Z,39.31
2023-10-12T01:08:51.588Z,39.12
2023-10-12T01:09:51.620Z,39.40
2023-10-12T01:10:51.605Z,39.69
2023-10-12T01:11:51.618Z,39.50
2023-10-12T01:12:51.728Z,39.29
2023-10-12T01:13:51.669Z,39.67
2023-10-12T01:14:51.663Z,39.96
2023-10-12T01:15:51.745Z,40.82
2023-10-12T01:16:51.835Z,40.82
2023-10-12T01:17:51.751Z,41.01
2023-10-12T01:18:51.892Z,40.92
2023-10-12T01:19:51.744Z,41.01
2023-10-12T01:20:51.755Z,41.11
2023-10-12T01:21:51.804Z,40.72
2023-10-12T01:22:51.814Z,41.11
2023-10-12T01:23:51.814Z,40.82
2023-10-12T01:24:51.899Z,40.92
2023-10-12T01:25:51.831Z,40.63
2023-10-12T01:26:51.847Z,40.44
2023-10-12T01:27:51.894Z,40.44
2023-10-12T01:28:51.892Z,40.25
2023-10-12T01:29:52.030Z,40.15
2023-10-12T01:30:51.929Z,40.92
2023-10-12T01:31:51.920Z,41.11
2023-10-12T01:32:51.957Z,40.72
2023-10-12T01:33:51.977Z,40.44
2023-10-12T01:34:51.967Z,40.72
2023-10-12T01:35:51.981Z,40.06
2023-10-12T01:36:52.064Z,39.86
2023-10-12T01:37:52.011Z,40.06
2023-10-12T01:38:52.057Z,40.72
2023-10-12T01:39:52.102Z,40.63
2023-10-12T01:40:52.097Z,40.92
2023-10-12T01:41:52.070Z,41.20
2023-10-12T01:42:52.123Z,41.49
2023-10-12T01:43:52.108Z,42.44
2023-10-12T01:44:52.123Z,41.68
2023-10-12T01:45:52.206Z,41.49
2023-10-12T01:46:52.171Z,40.92
2023-10-12T01:47:52.416Z,40.92
2023-10-12T01:48:52.253Z,40.82
2023-10-12T01:49:52.194Z,40.92
2023-10-12T01:50:52.209Z,40.82
2023-10-12T01:51:52.259Z,40.15
2023-10-12T01:52:52.245Z,39.86
2023-10-12T01:53:52.255Z,39.58
2023-10-12T01:54:52.326Z,39.58
2023-10-12T01:55:52.389Z,39.67
2023-10-12T01:56:52.306Z,39.67
2023-10-12T01:57:52.386Z,39.67
2023-10-12T01:58:52.335Z,39.77
2023-10-12T01:59:52.351Z,39.47
2023-10-12T02:00:52.527Z,39.94
2023-10-12T02:01:52.430Z,40.52
2023-10-12T02:02:52.439Z,40.61
2023-10-12T02:03:52.436Z,40.80
2023-10-12T02:04:52.554Z,39.94
2023-10-12T02:05:52.440Z,40.03
2023-10-12T02:06:52.506Z,39.94
2023-10-12T02:07:52.480Z,39.84
2023-10-12T02:08:52.499Z,39.65
2023-10-12T02:09:52.527Z,39.94
2023-10-12T02:10:52.535Z,40.61
2023-10-12T02:11:52.524Z,40.70
2023-10-12T02:12:52.594Z,40.70
2023-10-12T02:13:52.658Z,40.89
2023-10-12T02:14:52.678Z,41.47
2023-10-12T02:15:52.666Z,41.56
2023-10-12T02:16:52.773Z,40.89
2023-10-12T02:17:52.628Z,41.47
2023-10-12T02:18:52.736Z,41.09
2023-10-12T02:19:52.709Z,41.09
2023-10-12T02:20:52.731Z,41.38
2023-10-12T02:21:52.824Z,41.38
2023-10-12T02:22:52.766Z,41.09
2023-10-12T02:23:52.765Z,41.28
2023-10-12T02:24:52.791Z,41.47
2023-10-12T02:25:52.789Z,42.04
2023-10-12T02:26:52.841Z,42.24
2023-10-12T02:27:52.821Z,42.24
2023-10-12T02:28:52.809Z,42.24
2023-10-12T02:29:52.793Z,42.33
2023-10-12T02:30:52.888Z,42.24
2023-10-12T02:31:53.376Z,42.02
2023-10-12T02:32:52.868Z,41.85
2023-10-12T02:33:52.926Z,41.45
2023-10-12T02:34:52.871Z,42.04
2023-10-12T02:35:52.882Z,42.52
2023-10-12T02:36:52.950Z,42.90
2023-10-12T02:37:52.928Z,42.43
2023-10-12T02:38:52.939Z,42.43
2023-10-12T02:39:53.031Z,42.33
2023-10-12T02:40:52.981Z,42.90
2023-10-12T02:41:52.972Z,42.52
2023-10-12T02:42:53.217Z,42.81
2023-10-12T02:43:53.025Z,43.19
2023-10-12T02:44:53.030Z,43.66
2023-10-12T02:45:53.084Z,43.57
2023-10-12T02:46:53.049Z,43.48
2023-10-12T02:47:53.118Z,43.95
2023-10-12T02:48:53.099Z,44.24
2023-10-12T02:49:53.086Z,44.62
2023-10-12T02:50:53.104Z,44.62
2023-10-12T02:51:53.174Z,43.76
2023-10-12T02:52:53.452Z,43.76
2023-10-12T02:53:53.155Z,43.66
2023-10-12T02:54:53.278Z,43.36
2023-10-12T02:55:53.179Z,43.26
2023-10-12T02:56:53.200Z,42.81
2023-10-12T02:57:53.268Z,43.26
2023-10-12T02:58:53.241Z,42.90
2023-10-12T02:59:53.237Z,43.29
2023-10-12T03:00:53.294Z,43.36
2023-10-12T03:01:53.332Z,44.12
2023-10-12T03:02:53.378Z,44.89
2023-10-12T03:03:53.454Z,45.65
2023-10-12T03:04:53.386Z,45.84
2023-10-12T03:05:53.322Z,46.13
2023-10-12T03:06:53.351Z,45.84
2023-10-12T03:07:53.353Z,45.94
2023-10-12T03:08:53.369Z,46.61
2023-10-12T03:09:53.411Z,46.22
2023-10-12T03:10:53.398Z,46.42
2023-10-12T03:11:53.415Z,46.13
2023-10-12T03:12:53.480Z,45.84
2023-10-12T03:13:53.445Z,46.13
2023-10-12T03:14:53.481Z,45.65
2023-10-12T03:15:53.556Z,45.46
2023-10-12T03:16:53.501Z,45.84
2023-10-12T03:17:53.542Z,45.56
2023-10-12T03:18:53.532Z,45.65
2023-10-12T03:19:53.532Z,45.56
2023-10-12T03:20:53.581Z,45.75
2023-10-12T03:21:53.846Z,45.84
2023-10-12T03:22:53.623Z,45.75
2023-10-12T03:23:53.586Z,45.56
2023-10-12T03:24:53.641Z,45.65
2023-10-12T03:25:53.641Z,45.75
2023-10-12T03:26:53.640Z,46.13
2023-10-12T03:27:53.690Z,45.94
2023-10-12T03:28:53.662Z,46.03
2023-10-12T03:29:53.679Z,45.94
2023-10-12T03:30:53.820Z,45.75
2023-10-12T03:31:53.758Z,45.65
2023-10-12T03:32:53.774Z,45.65
2023-10-12T03:33:53.772Z,45.75
2023-10-12T03:34:53.747Z,45.75
2023-10-12T03:35:53.761Z,45.65
2023-10-12T03:36:53.808Z,45.46
2023-10-12T03:37:55.230Z,45.65
2023-10-12T03:38:53.806Z,46.03
2023-10-12T03:39:53.836Z,44.98
2023-10-12T03:40:53.833Z,43.36
2023-10-12T03:41:53.857Z,43.36
2023-10-12T03:42:53.917Z,43.74
2023-10-12T03:43:53.891Z,44.31
2023-10-12T03:44:53.893Z,44.22
2023-10-12T03:45:53.966Z,43.36
2023-10-12T03:46:54.092Z,42.60
2023-10-12T03:47:54.014Z,42.50
2023-10-12T03:48:53.967Z,42.90
2023-10-12T03:49:54.056Z,42.90
2023-10-12T03:50:53.977Z,43.38
2023-10-12T03:51:54.017Z,43.55
2023-10-12T03:52:54.014Z,43.29
2023-10-12T03:53:54.029Z,43.66
2023-10-12T03:54:54.068Z,43.66
2023-10-12T03:55:54.050Z,43.40
2023-10-12T03:56:55.397Z,43.76
2023-10-12T03:57:54.122Z,43.57
2023-10-12T03:58:54.090Z,43.57
2023-10-12T03:59:54.110Z,43.29
2023-10-12T04:00:54.163Z,43.09
2023-10-12T04:01:54.338Z,43.48
2023-10-12T04:02:54.230Z,43.48
2023-10-12T04:03:54.244Z,43.38
2023-10-12T04:04:54.181Z,43.19
2023-10-12T04:05:54.262Z,43.29
2023-10-12T04:06:54.253Z,43.74
2023-10-12T04:07:54.222Z,42.97
2023-10-12T04:08:54.236Z,42.40
2023-10-12T04:09:54.319Z,41.74
2023-10-12T04:10:54.266Z,41.55
2023-10-12T04:11:54.292Z,40.88
2023-10-12T04:12:54.378Z,40.88
2023-10-12T04:13:54.367Z,41.16
2023-10-12T04:14:54.320Z,41.55
2023-10-12T04:15:54.332Z,41.45
2023-10-12T04:16:54.362Z,41.45
2023-10-12T04:17:54.374Z,41.83
2023-10-12T04:18:54.431Z,41.74
2023-10-12T04:19:54.399Z,42.11
2023-10-12T04:20:54.408Z,42.11
2023-10-12T04:21:54.468Z,42.21
2023-10-12T04:22:54.430Z,42.48
2023-10-12T04:23:54.448Z,42.79
2023-10-12T04:24:54.475Z,42.69
2023-10-12T04:25:54.489Z,42.86
2023-10-12T04:26:54.503Z,42.86
2023-10-12T04:27:54.585Z,42.86
2023-10-12T04:28:54.523Z,42.60
2023-10-12T04:29:54.535Z,42.86
2023-10-12T04:30:54.684Z,42.96
2023-10-12T04:31:54.592Z,42.60
2023-10-12T04:32:54.588Z,42.77
2023-10-12T04:33:54.643Z,43.17
2023-10-12T04:34:54.630Z,43.24
2023-10-12T04:35:54.618Z,43.53
2023-10-12T04:36:54.661Z,43.24
2023-10-12T04:37:54.649Z,43.33
2023-10-12T04:38:54.667Z,43.33
2023-10-12T04:39:54.703Z,43.43
2023-10-12T04:40:54.689Z,43.24
2023-10-12T04:41:54.709Z,43.53
2023-10-12T04:42:54.803Z,43.43
2023-10-12T04:43:54.785Z,43.24
2023-10-12T04:44:54.746Z,43.33
2023-10-12T04:45:54.831Z,43.24
2023-10-12T04:46:54.842Z,43.24
2023-10-12T04:47:54.802Z,43.15
2023-10-12T04:48:54.868Z,43.43
2023-10-12T04:49:54.821Z,43.53
2023-10-12T04:50:54.852Z,43.62
2023-10-12T04:51:54.861Z,43.91
2023-10-12T04:52:54.861Z,43.24
2023-10-12T04:53:54.874Z,43.24
2023-10-12T04:54:54.890Z,42.86
2023-10-12T04:55:54.909Z,42.57
2023-10-12T04:56:54.916Z,42.77
2023-10-12T04:57:54.963Z,42.38
2023-10-12T04:58:54.944Z,42.10
2023-10-12T04:59:54.963Z,42.21
2023-10-12T05:00:55.024Z,42.10
2023-10-12T05:01:55.071Z,42.02
2023-10-12T05:02:55.044Z,42.21
2023-10-12T05:03:55.105Z,42.02
2023-10-12T05:04:55.149Z,42.40
2023-10-12T05:05:55.046Z,42.38
2023-10-12T05:06:55.104Z,42.29
2023-10-12T05:07:55.355Z,42.38
2023-10-12T05:08:55.091Z,42.38
2023-10-12T05:09:55.142Z,42.69
2023-10-12T05:10:55.188Z,42.96
2023-10-12T05:11:55.130Z,42.96
2023-10-12T05:12:55.168Z,42.96
2023-10-12T05:13:55.163Z,42.77
2023-10-12T05:14:55.174Z,43.43
2023-10-12T05:15:55.233Z,43.33
2023-10-12T05:16:55.239Z,43.24
2023-10-12T05:17:55.248Z,43.53
2023-10-12T05:18:55.261Z,43.62
2023-10-12T05:19:55.247Z,43.24
2023-10-12T05:20:55.261Z,42.38
2023-10-12T05:21:55.410Z,42.10
2023-10-12T05:22:55.348Z,42.10
2023-10-12T05:23:55.301Z,42.10
2023-10-12T05:24:55.336Z,42.38
2023-10-12T05:25:55.386Z,42.67
2023-10-12T05:26:55.349Z,42.48
2023-10-12T05:27:55.421Z,43.43
2023-10-12T05:28:55.376Z,43.33
2023-10-12T05:29:55.387Z,43.43
2023-10-12T05:30:55.440Z,43.43
2023-10-12T05:31:55.479Z,43.33
2023-10-12T05:32:57.867Z,42.86
2023-10-12T05:33:55.470Z,42.19
2023-10-12T05:34:55.462Z,41.62
2023-10-12T05:35:55.496Z,41.71
2023-10-12T05:36:55.588Z,42.00
2023-10-12T05:37:55.507Z,42.10
2023-10-12T05:38:55.547Z,42.10
2023-10-12T05:39:55.569Z,42.38
2023-10-12T05:40:55.588Z,42.38
2023-10-12T05:41:55.552Z,42.38
2023-10-12T05:42:55.595Z,42.57
2023-10-12T05:43:55.581Z,43.05
2023-10-12T05:44:55.594Z,43.33
2023-10-12T05:45:55.664Z,43.53
2023-10-12T05:46:55.675Z,43.43
2023-10-12T05:47:55.739Z,43.43
2023-10-12T05:48:55.677Z,43.53
2023-10-12T05:49:55.670Z,43.62
2023-10-12T05:50:55.678Z,44.20
2023-10-12T05:51:55.764Z,44.29
2023-10-12T05:52:55.718Z,44.96
2023-10-12T05:53:55.719Z,44.96
2023-10-12T05:54:55.787Z,44.38
2023-10-12T05:55:55.752Z,44.20
2023-10-12T05:56:55.926Z,44.48
2023-10-12T05:57:55.826Z,44.38
2023-10-12T05:58:55.790Z,44.96
2023-10-12T05:59:55.806Z,44.87
2023-10-12T06:00:55.826Z,45.06
2023-10-12T06:01:55.889Z,45.43
2023-10-12T06:02:55.941Z,45.53
2023-10-12T06:03:56.001Z,45.34
2023-10-12T06:04:55.934Z,44.87
2023-10-12T06:05:55.900Z,44.77
2023-10-12T06:06:55.951Z,44.87
2023-10-12T06:07:55.915Z,45.15
2023-10-12T06:08:55.928Z,44.67
2023-10-12T06:09:55.981Z,44.77
2023-10-12T06:10:55.978Z,44.67
2023-10-12T06:11:56.076Z,45.53
2023-10-12T06:12:56.000Z,46.20
2023-10-12T06:13:56.050Z,46.48
2023-10-12T06:14:56.025Z,46.77
2023-10-12T06:15:56.059Z,46.87
2023-10-12T06:16:56.454Z,47.16
2023-10-12T06:17:56.112Z,47.44
2023-10-12T06:18:56.180Z,47.25
2023-10-12T06:19:56.087Z,47.34
2023-10-12T06:20:56.097Z,47.44
2023-10-12T06:21:56.135Z,47.06
2023-10-12T06:22:56.121Z,46.58
2023-10-12T06:23:56.140Z,46.30
2023-10-12T06:24:56.273Z,46.87
2023-10-12T06:26:07.238Z,46.80
2023-10-12T06:26:56.203Z,46.68
2023-10-12T06:27:56.234Z,46.77
2023-10-12T06:28:56.210Z,46.11
2023-10-12T06:29:56.430Z,45.84
2023-10-12T06:30:56.324Z,46.13
2023-10-12T06:31:56.336Z,46.03
2023-10-12T06:32:56.366Z,46.80
2023-10-12T06:33:56.324Z,46.61
2023-10-12T06:34:56.299Z,46.70
2023-10-12T06:35:56.316Z,46.61
2023-10-12T06:36:56.394Z,46.89
2023-10-12T06:37:56.464Z,46.61
2023-10-12T06:38:56.360Z,46.03
2023-10-12T06:39:56.433Z,46.03
2023-10-12T06:40:56.378Z,46.13
2023-10-12T06:41:56.393Z,46.70
2023-10-12T06:42:56.439Z,46.13
2023-10-12T06:43:56.419Z,45.94
2023-10-12T06:44:56.452Z,46.03
2023-10-12T06:45:56.696Z,45.84
2023-10-12T06:46:56.568Z,45.56
2023-10-12T06:47:56.512Z,45.56
2023-10-12T06:48:56.538Z,46.34
2023-10-12T06:49:56.506Z,46.42
2023-10-12T06:50:56.534Z,46.44
2023-10-12T06:51:56.557Z,46.15
2023-10-12T06:52:56.574Z,45.87
2023-10-12T06:53:56.566Z,46.15
2023-10-12T06:54:56.585Z,45.96
2023-10-12T06:55:56.590Z,46.34
2023-10-12T06:56:56.618Z,46.06
2023-10-12T06:57:56.647Z,45.48
2023-10-12T06:58:56.671Z,45.01
2023-10-12T06:59:56.656Z,44.91
2023-10-12T07:00:56.696Z,44.24
2023-10-12T07:01:56.730Z,43.95
2023-10-12T07:02:56.736Z,44.15
2023-10-12T07:03:56.803Z,44.15
2023-10-12T07:04:56.818Z,44.43
2023-10-12T07:05:56.740Z,44.43
2023-10-12T07:06:56.817Z,44.53
2023-10-12T07:07:56.769Z,44.62
2023-10-12T07:08:56.781Z,44.91
2023-10-12T07:09:57.732Z,45.10
2023-10-12T07:10:56.827Z,44.91
2023-10-12T07:11:56.821Z,45.01
2023-10-12T07:12:56.844Z,44.34
2023-10-12T07:13:56.855Z,44.43
2023-10-12T07:14:56.906Z,44.43
2023-10-12T07:15:56.981Z,44.43
2023-10-12T07:16:56.940Z,43.57
2023-10-12T07:17:56.985Z,43.48
2023-10-12T07:19:08.783Z,43.98
2023-10-12T07:19:56.937Z,45.20
2023-10-12T07:20:56.954Z,45.01
2023-10-12T07:21:57.008Z,45.01
2023-10-12T07:22:57.002Z,43.95
2023-10-12T07:23:56.999Z,43.50
2023-10-12T07:24:57.127Z,43.29
2023-10-12T07:25:57.032Z,43.69
2023-10-12T07:26:57.041Z,43.98
2023-10-12T07:27:57.125Z,43.59
2023-10-12T07:28:57.081Z,43.30
2023-10-12T07:29:57.084Z,42.54
2023-10-12T07:30:57.124Z,43.21
2023-10-12T07:31:57.183Z,43.50
2023-10-12T07:32:57.468Z,42.83
2023-10-12T07:33:57.177Z,43.59
2023-10-12T07:34:57.162Z,43.12
2023-10-12T07:35:57.197Z,43.59
2023-10-12T07:36:57.211Z,43.69
2023-10-12T07:37:57.205Z,43.50
2023-10-12T07:38:57.222Z,41.97
2023-10-12T07:39:57.298Z,40.53
2023-10-12T07:40:57.245Z,40.72
2023-10-12T07:41:57.272Z,40.92
2023-10-12T07:42:57.293Z,40.63
2023-10-12T07:43:57.295Z,40.72
2023-10-12T07:44:57.308Z,40.63
2023-10-12T07:45:57.371Z,41.13
2023-10-12T07:46:57.631Z,41.13
2023-10-12T07:47:57.347Z,41.41
2023-10-12T07:48:57.582Z,41.22
2023-10-12T07:49:57.385Z,41.03
2023-10-12T07:50:57.397Z,42.49
2023-10-12T07:51:57.499Z,42.40
2023-10-12T07:52:57.426Z,42.97
2023-10-12T07:53:57.442Z,42.40
2023-10-12T07:54:57.511Z,42.80
2023-10-12T07:55:57.502Z,41.65
2023-10-12T07:56:57.484Z,41.74
2023-10-12T07:57:57.622Z,41.55
2023-10-12T07:58:57.509Z,41.27
2023-10-12T07:59:57.544Z,40.88
2023-10-12T08:00:57.609Z,42.13
2023-10-12T08:01:57.599Z,42.60
2023-10-12T08:02:57.616Z,42.32
2023-10-12T08:03:57.628Z,41.67
2023-10-12T08:04:57.630Z,41.67
2023-10-12T08:05:57.631Z,41.86
2023-10-12T08:06:57.763Z,41.57
2023-10-12T08:07:57.700Z,42.17
2023-10-12T08:08:57.665Z,42.46
2023-10-12T08:09:57.698Z,41.21
2023-10-12T08:10:57.777Z,40.73
2023-10-12T08:11:57.711Z,39.58
2023-10-12T08:12:57.759Z,39.10
2023-10-12T08:13:57.743Z,38.22
2023-10-12T08:14:57.756Z,38.12
2023-10-12T08:15:58.247Z,38.51
2023-10-12T08:16:57.802Z,38.53
2023-10-12T08:17:57.880Z,38.14
2023-10-12T08:18:57.933Z,38.22
2023-10-12T08:19:57.836Z,38.14
2023-10-12T08:20:57.848Z,38.12
2023-10-12T08:21:57.881Z,38.32
2023-10-12T08:22:57.880Z,39.94
2023-10-12T08:23:57.890Z,39.75
2023-10-12T08:24:58.002Z,40.35
2023-10-12T08:25:57.924Z,39.56
2023-10-12T08:26:57.941Z,39.77
2023-10-12T08:27:57.994Z,40.16
2023-10-12T08:28:57.971Z,40.73
2023-10-12T08:29:57.989Z,41.90
2023-10-12T08:30:58.171Z,40.84
2023-10-12T08:31:58.042Z,40.84
2023-10-12T08:32:58.104Z,41.06
2023-10-12T08:33:58.090Z,42.30
2023-10-12T08:34:58.099Z,41.04
2023-10-12T08:35:58.083Z,40.66
2023-10-12T08:36:58.185Z,40.87
2023-10-12T08:37:58.795Z,41.13
2023-10-12T08:38:58.134Z,41.35
2023-10-12T08:39:58.164Z,41.63
2023-10-12T08:40:58.172Z,41.54
2023-10-12T08:41:58.178Z,42.50
2023-10-12T08:42:58.206Z,41.93
2023-10-12T08:43:58.211Z,41.08
2023-10-12T08:44:58.222Z,40.87
2023-10-12T08:45:58.328Z,39.33
2023-10-12T08:46:58.429Z,39.04
2023-10-12T08:47:58.296Z,39.23
2023-10-12T08:48:58.313Z,42.02
2023-10-12T08:49:58.312Z,41.16
2023-10-12T08:50:58.353Z,41.16
2023-10-12T08:51:58.359Z,41.17
2023-10-12T08:52:58.358Z,41.75
2023-10-12T08:53:58.366Z,42.30
2023-10-12T08:54:58.446Z,41.06
2023-10-12T08:55:58.404Z,40.60
2023-10-12T08:56:58.416Z,39.33
2023-10-12T08:57:58.478Z,39.33
2023-10-12T08:58:58.448Z,41.17
2023-10-12T08:59:58.459Z,41.08
2023-10-12T09:00:58.547Z,39.35
2023-10-12T09:01:58.518Z,39.76
2023-10-12T09:02:58.577Z,39.47
2023-10-12T09:03:58.598Z,38.49
2023-10-12T09:04:58.643Z,40.41
2023-10-12T09:05:58.567Z,40.52
2023-10-12T09:06:58.700Z,39.37
2023-10-12T09:07:58.593Z,39.76
2023-10-12T09:08:58.620Z,40.72
2023-10-12T09:09:58.637Z,41.00
2023-10-12T09:10:58.646Z,40.52
2023-10-12T09:11:58.660Z,40.33
2023-10-12T09:12:58.737Z,40.72
2023-10-12T09:13:58.695Z,40.91
2023-10-12T09:14:58.712Z,41.41
2023-10-12T09:15:58.864Z,40.73
2023-10-12T09:16:58.827Z,41.14
2023-10-12T09:17:58.909Z,40.18
2023-10-12T09:18:58.907Z,39.89
2023-10-12T09:19:58.796Z,39.31
2023-10-12T09:20:58.955Z,39.89
2023-10-12T09:21:58.922Z,40.39
2023-10-12T09:22:58.864Z,39.70
2023-10-12T09:23:58.862Z,40.95
2023-10-12T09:24:59.056Z,39.89
2023-10-12T09:26:03.641Z,38.64
2023-10-12T09:26:58.932Z,39.89
2023-10-12T09:27:59.003Z,39.12
2023-10-12T09:28:58.950Z,38.64
2023-10-12T09:29:59.400Z,39.11
2023-10-12T09:30:59.091Z,39.87
2023-10-12T09:31:59.095Z,40.64
2023-10-12T09:32:59.076Z,40.16
2023-10-12T09:33:59.072Z,40.64
2023-10-12T09:34:59.070Z,41.12
2023-10-12T09:35:59.069Z,40.73
2023-10-12T09:37:00.148Z,40.33
2023-10-12T09:37:59.107Z,41.99
2023-10-12T09:38:59.145Z,40.83
2023-10-12T09:39:59.230Z,41.31
2023-10-12T09:40:59.160Z,42.10
2023-10-12T09:41:59.176Z,41.16
2023-10-12T09:42:59.214Z,40.20
2023-10-12T09:43:59.213Z,40.80
2023-10-12T09:44:59.231Z,41.11
2023-10-12T09:45:59.335Z,39.56
2023-10-12T09:46:59.335Z,38.39
2023-10-12T09:47:59.444Z,39.47
2023-10-12T09:48:59.334Z,38.49
2023-10-12T09:49:59.340Z,37.72
2023-10-12T09:50:59.339Z,37.52
2023-10-12T09:51:59.395Z,38.87
2023-10-12T09:52:59.486Z,37.83
2023-10-12T09:53:59.415Z,37.37
2023-10-12T09:54:59.512Z,37.43
2023-10-12T09:55:59.426Z,38.20
2023-10-12T09:56:59.449Z,37.74
2023-10-12T09:57:59.487Z,36.54
2023-10-12T09:58:59.482Z,38.97
2023-10-12T09:59:59.502Z,38.51
2023-10-12T10:01:01.107Z,37.74
2023-10-12T10:01:59.629Z,37.74
2023-10-12T10:02:59.593Z,39.37
2023-10-12T10:03:59.612Z,38.02
2023-10-12T10:04:59.693Z,38.49
2023-10-12T10:05:59.608Z,40.05
2023-10-12T10:06:59.691Z,41.22
2023-10-12T10:07:59.683Z,39.68
2023-10-12T10:08:59.665Z,39.49
2023-10-12T10:09:59.768Z,39.59
2023-10-12T10:10:59.722Z,39.68
2023-10-12T10:11:59.733Z,39.51
2023-10-12T10:12:59.773Z,38.93
2023-10-12T10:13:59.761Z,38.72
2023-10-12T10:14:59.778Z,38.74
2023-10-12T10:15:59.863Z,38.91
2023-10-12T10:16:59.879Z,38.43
2023-10-12T10:17:59.857Z,38.54
2023-10-12T10:18:59.881Z,38.54
2023-10-12T10:19:59.915Z,37.76
2023-10-12T10:20:59.892Z,38.62
2023-10-12T10:22:00.022Z,39.01
2023-10-12T10:22:59.986Z,39.29
2023-10-12T10:23:59.948Z,38.53
2023-10-12T10:25:00.020Z,38.64
2023-10-12T10:26:00.013Z,38.46
2023-10-12T10:27:00.065Z,38.78
2023-10-12T10:28:00.067Z,38.20
2023-10-12T10:29:00.073Z,36.94
2023-10-12T10:30:00.073Z,37.71
2023-10-12T10:31:00.150Z,36.83
2023-10-12T10:32:00.120Z,37.41
2023-10-12T10:33:00.134Z,37.89
2023-10-12T10:34:00.227Z,39.06
2023-10-12T10:35:00.215Z,38.70
2023-10-12T10:36:00.277Z,37.63
2023-10-12T10:37:00.213Z,36.85
2023-10-12T10:38:00.248Z,37.41
2023-10-12T10:39:00.242Z,39.16
2023-10-12T10:40:00.314Z,38.39
2023-10-12T10:41:00.283Z,37.54
2023-10-12T10:42:00.315Z,37.45
2023-10-12T10:43:00.371Z,38.41
2023-10-12T10:44:00.352Z,37.17
2023-10-12T10:45:00.360Z,36.79
2023-10-12T10:46:00.434Z,36.77
2023-10-12T10:47:00.420Z,36.75
2023-10-12T10:48:18.720Z,36.61
2023-10-12T10:50:00.514Z,39.59
2023-10-12T10:51:00.480Z,39.59
2023-10-12T10:52:00.533Z,38.14
2023-10-12T10:53:00.524Z,38.53
2023-10-12T10:54:01.013Z,39.66
2023-10-12T10:55:00.602Z,40.26
2023-10-12T10:56:00.576Z,40.57
2023-10-12T10:57:00.609Z,39.62
2023-10-12T10:58:00.637Z,38.20
2023-10-12T10:59:00.680Z,37.23
2023-10-12T11:00:00.658Z,37.02
2023-10-12T11:01:00.717Z,37.29
2023-10-12T11:02:00.723Z,38.22
2023-10-12T11:03:00.794Z,39.39
2023-10-12T11:04:00.845Z,39.68
2023-10-12T11:05:00.768Z,39.41
2023-10-12T11:06:00.776Z,38.45
2023-10-12T11:07:00.811Z,39.62
2023-10-12T11:08:00.815Z,37.81
2023-10-12T11:09:00.837Z,38.49
2023-10-12T11:10:00.902Z,37.02
2023-10-12T11:11:00.875Z,38.58
2023-10-12T11:12:00.925Z,38.29
2023-10-12T11:13:00.943Z,37.43
2023-10-12T11:14:00.954Z,37.10
2023-10-12T11:15:00.977Z,38.56
2023-10-12T11:16:00.992Z,37.31
2023-10-12T11:17:01.228Z,38.78
2023-10-12T11:18:01.054Z,37.23
2023-10-12T11:19:01.082Z,39.18
2023-10-12T11:20:01.074Z,35.98
2023-10-12T11:21:01.080Z,36.67
2023-10-12T11:22:01.137Z,36.17
2023-10-12T11:23:01.120Z,37.62
2023-10-12T11:24:01.148Z,36.52
2023-10-12T11:25:01.285Z,38.95
2023-10-12T11:26:01.178Z,38.49
2023-10-12T11:27:01.204Z,37.33
2023-10-12T11:28:01.462Z,36.91
2023-10-12T11:29:01.259Z,38.16
2023-10-12T11:30:01.298Z,37.29
2023-10-12T11:31:01.486Z,38.85
2023-10-12T11:32:01.313Z,36.85
2023-10-12T11:33:01.474Z,36.27
2023-10-12T11:34:01.590Z,36.96
2023-10-12T11:35:01.376Z,36.88
2023-10-12T11:36:01.384Z,35.24
2023-10-12T11:37:01.437Z,35.13
2023-10-12T11:38:01.435Z,35.42
2023-10-12T11:39:01.459Z,35.72
2023-10-12T11:40:01.553Z,35.22
2023-10-12T11:41:01.485Z,35.19
2023-10-12T11:42:01.506Z,35.56
2023-10-12T11:43:01.583Z,36.35
2023-10-12T11:44:01.549Z,36.75
2023-10-12T11:45:01.573Z,35.98
2023-10-12T11:46:01.658Z,35.21
2023-10-12T11:47:01.666Z,35.40
2023-10-12T11:48:01.636Z,35.40
2023-10-12T11:49:01.668Z,35.48
2023-10-12T11:50:01.680Z,36.38
2023-10-12T11:51:01.770Z,35.72
2023-10-12T11:52:01.791Z,35.36
2023-10-12T11:53:01.731Z,33.60
2023-10-12T11:54:01.754Z,32.82
2023-10-12T11:55:01.808Z,33.29
2023-10-12T11:56:01.797Z,33.39
2023-10-12T11:57:01.816Z,32.91
2023-10-12T11:58:01.897Z,33.36
2023-10-12T11:59:01.865Z,34.21
2023-10-12T12:00:01.877Z,33.94
2023-10-12T12:01:01.973Z,35.02
2023-10-12T12:02:01.994Z,34.55
2023-10-12T12:03:01.979Z,34.47
2023-10-12T12:04:02.058Z,32.33
2023-10-12T12:05:09.048Z,32.81
2023-10-12T12:06:02.001Z,32.51
2023-10-12T12:07:02.084Z,32.81
2023-10-12T12:08:02.042Z,33.07
2023-10-12T12:09:02.062Z,34.05
2023-10-12T12:10:02.195Z,34.45
2023-10-12T12:11:02.107Z,34.24
2023-10-12T12:12:02.123Z,35.22
2023-10-12T12:13:02.176Z,34.24
2023-10-12T12:14:02.166Z,34.36
2023-10-12T12:15:02.193Z,34.26
2023-10-12T12:16:02.240Z,33.80
2023-10-12T12:17:02.346Z,34.05
2023-10-12T12:18:02.319Z,33.74
2023-10-12T12:19:02.380Z,34.69
2023-10-12T12:20:02.292Z,35.06
2023-10-12T12:21:03.805Z,36.06
2023-10-12T12:22:02.397Z,34.32
2023-10-12T12:23:02.351Z,34.24
2023-10-12T12:24:02.476Z,34.14
2023-10-12T12:25:02.417Z,33.47
2023-10-12T12:26:02.415Z,33.37
2023-10-12T12:27:02.433Z,33.48
2023-10-12T12:28:02.517Z,33.20
2023-10-12T12:29:02.471Z,32.70
2023-10-12T12:30:22.341Z,32.89
2023-10-12T12:31:02.629Z,33.05
2023-10-12T12:32:02.772Z,34.21
2023-10-12T12:33:02.605Z,34.21
2023-10-12T12:34:02.612Z,34.30
2023-10-12T12:35:02.629Z,34.29
2023-10-12T12:36:02.819Z,34.50
2023-10-12T12:37:02.676Z,34.22
2023-10-12T12:38:02.661Z,33.13
2023-10-12T12:39:02.678Z,34.21
2023-10-12T12:40:02.723Z,33.34
2023-10-12T12:41:02.717Z,32.97
2023-10-12T12:42:02.737Z,32.41
2023-10-12T12:43:02.835Z,31.62
2023-10-12T12:44:02.831Z,32.89
2023-10-12T12:45:02.796Z,31.65
2023-10-12T12:46:02.914Z,32.06
2023-10-12T12:47:02.887Z,31.27
2023-10-12T12:48:02.956Z,31.37
2023-10-12T12:49:02.903Z,32.15
2023-10-12T12:50:02.903Z,31.48
2023-10-12T12:51:02.946Z,31.20
2023-10-12T12:52:03.014Z,30.82
2023-10-12T12:53:02.969Z,30.54
2023-10-12T12:54:02.983Z,30.73